createdAt,value
2018-09-27T00:03:37.692Z,56
2018-09-27T00:09:07.686Z,56
2018-09-27T00:20:07.267Z,56
2018-09-27T00:25:37.693Z,56
2018-09-27T00:31:06.612Z,56
2018-09-27T00:36:41.887Z,56
2018-09-27T00:42:06.647Z,56
2018-09-27T00:47:36.667Z,56
2018-09-27T00:53:06.610Z,56
2018-09-27T00:58:36.826Z,56
2018-09-27T01:04:06.409Z,56
2018-09-27T01:09:35.300Z,56
2018-09-27T01:15:04.551Z,56
2018-09-27T01:20:33.760Z,56
2018-09-27T01:26:08.029Z,56
2018-09-27T01:31:33.490Z,56
2018-09-27T01:37:08.498Z,56
2018-09-27T01:42:37.733Z,56
2018-09-27T01:48:01.964Z,56
2018-09-27T01:53:31.435Z,56
2018-09-27T01:59:00.340Z,56
2018-09-27T02:04:30.559Z,56
2018-09-27T02:10:06.206Z,56
2018-09-27T02:15:30.452Z,56
2018-09-27T02:20:59.282Z,56
2018-09-27T02:26:28.460Z,56
2018-09-27T02:31:57.675Z,56
2018-09-27T02:37:26.976Z,56
2018-09-27T02:42:57.137Z,56
2018-09-27T02:48:26.377Z,56
2018-09-27T02:53:55.561Z,56
2018-09-27T02:59:24.790Z,56
2018-09-27T03:04:53.993Z,56
2018-09-27T03:10:23.303Z,56
2018-09-27T03:15:52.413Z,56
2018-09-27T03:21:22.892Z,56
2018-09-27T03:26:56.906Z,56
2018-09-27T03:32:22.310Z,56
2018-09-27T03:37:51.277Z,56
2018-09-27T03:43:26.053Z,56
2018-09-27T03:48:49.768Z,56
2018-09-27T03:54:19.202Z,56
2018-09-27T03:59:54.176Z,56
2018-09-27T04:05:19.292Z,56
2018-09-27T04:10:49.914Z,56
2018-09-27T04:16:19.762Z,56
2018-09-27T04:21:54.978Z,56
2018-09-27T04:27:19.392Z,56
2018-09-27T04:32:48.755Z,56
2018-09-27T04:38:17.849Z,56
2018-09-27T04:43:48.094Z,56
2018-09-27T04:49:17.905Z,56
2018-09-27T04:54:47.089Z,56
2018-09-27T05:00:22.268Z,56
2018-09-27T05:05:46.722Z,56
2018-09-27T05:11:20.808Z,56
2018-09-27T05:16:46.192Z,56
2018-09-27T06:11:42.141Z,63
2018-09-27T06:17:11.649Z,63
2018-09-27T06:22:45.771Z,64
2018-09-27T06:28:16.026Z,64
2018-09-27T06:33:40.616Z,64
2018-09-27T06:39:09.972Z,64
2018-09-27T06:44:40.725Z,65
2018-09-27T06:50:09.635Z,65
2018-09-27T06:55:39.154Z,65
2018-09-27T07:01:13.075Z,65
2018-09-27T07:06:37.820Z,65
2018-09-27T07:12:07.967Z,65
2018-09-27T07:17:37.470Z,65
2018-09-27T07:39:36.618Z,66
2018-09-27T07:45:11.887Z,66
2018-09-27T07:50:36.777Z,66
2018-09-27T07:56:07.301Z,66
2018-09-27T08:01:41.503Z,67
2018-09-27T08:07:05.660Z,67
2018-09-27T08:12:36.200Z,67
2018-09-27T08:18:11.873Z,67
2018-09-27T08:23:41.079Z,67
2018-09-27T08:29:05.720Z,67
2018-09-27T08:34:35.923Z,68
2018-09-27T08:40:05.580Z,68
2018-09-27T08:45:36.293Z,68
2018-09-27T08:51:05.537Z,68
2018-09-27T08:56:36.465Z,68
2018-09-27T09:02:06.883Z,68
2018-09-27T09:07:36.624Z,68
2018-09-27T09:13:05.852Z,68
2018-09-27T09:18:36.724Z,68
2018-09-27T09:24:06.159Z,68
2018-09-27T09:29:37.587Z,68
2018-09-27T09:35:12.753Z,68
2018-09-27T09:40:38.644Z,68
2018-09-27T09:46:08.142Z,68
2018-09-27T09:51:37.405Z,68
2018-09-27T09:57:08.084Z,68
2018-09-27T10:02:38.178Z,68
2018-09-27T10:08:07.600Z,68
2018-09-27T10:13:43.402Z,68
2018-09-27T10:19:13.459Z,68
2018-09-27T10:24:39.353Z,68
2018-09-27T10:30:09.622Z,68
2018-09-27T10:35:40.073Z,68
2018-09-27T10:41:14.660Z,67
2018-09-27T10:46:39.567Z,67
2018-09-27T10:52:11.037Z,67
2018-09-27T11:47:16.346Z,64
2018-09-27T11:52:47.204Z,64
2018-09-27T11:58:17.457Z,64
2018-09-27T12:03:47.475Z,64
2018-09-27T12:09:17.370Z,63
2018-09-27T12:14:50.139Z,63
2018-09-27T12:20:18.270Z,63
2018-09-27T12:25:49.993Z,63
2018-09-27T12:31:20.444Z,63
2018-09-27T12:36:50.318Z,63
2018-09-27T12:42:20.257Z,63
2018-09-27T12:47:51.509Z,63
2018-09-27T12:53:22.534Z,62
2018-09-27T12:58:54.106Z,62
2018-09-27T13:04:24.038Z,62
2018-09-27T13:09:55.159Z,62
2018-09-27T13:15:25.081Z,62
2018-09-27T13:20:55.695Z,62
2018-09-27T13:26:26.815Z,62
2018-09-27T13:31:57.555Z,62
2018-09-27T13:37:27.433Z,62
2018-09-27T13:42:58.649Z,62
2018-09-27T13:48:33.447Z,62
2018-09-27T13:53:58.354Z,62
2018-09-27T13:59:28.105Z,62
2018-09-27T14:05:03.319Z,62
2018-09-27T14:10:32.990Z,62
2018-09-27T14:15:58.603Z,62
2018-09-27T14:21:29.501Z,62
2018-09-27T14:26:59.413Z,62
2018-09-27T14:32:30.645Z,62
2018-09-27T17:39:41.517Z,63
2018-09-27T17:45:09.376Z,63
2018-09-27T17:50:39.644Z,63
2018-09-27T17:56:10.288Z,63
2018-09-27T18:01:40.436Z,63
2018-09-27T18:07:10.701Z,63
2018-09-27T18:12:40.400Z,63
2018-09-27T18:18:11.113Z,63
2018-09-27T18:23:40.832Z,64
2018-09-27T18:29:15.712Z,64
2018-09-27T18:34:40.301Z,64
2018-09-27T18:40:09.972Z,64
2018-09-27T18:45:40.660Z,64
2018-09-27T18:51:10.434Z,64
2018-09-27T18:56:40.013Z,64
2018-09-27T19:02:10.071Z,64
2018-09-27T19:07:40.457Z,64
2018-09-27T19:13:16.486Z,64
2018-09-27T19:18:46.454Z,64
2018-09-27T19:24:12.104Z,64
2018-09-27T19:29:42.374Z,64
2018-09-27T19:35:12.199Z,64
2018-09-27T19:40:45.483Z,64
2018-09-27T19:46:13.518Z,64
2018-09-27T19:51:49.161Z,65
2018-09-27T19:57:18.918Z,65
2018-09-27T20:02:49.854Z,65
2018-09-27T20:08:14.381Z,65
2018-09-27T20:13:45.219Z,65
2018-09-27T20:19:15.898Z,65
2018-09-27T20:24:45.655Z,65
2018-09-27T20:30:16.313Z,65
2018-09-27T20:35:45.735Z,65
2018-09-27T20:41:15.824Z,65
2018-09-27T20:46:46.155Z,65
2018-09-27T20:52:16.090Z,65
2018-09-27T20:57:46.773Z,65
2018-09-27T21:03:16.343Z,65
2018-09-27T21:08:46.375Z,65
2018-09-27T21:14:20.917Z,65
2018-09-27T21:19:45.268Z,65
2018-09-27T21:25:20.197Z,65
2018-09-27T21:30:50.675Z,65
2018-09-27T21:36:16.248Z,65
2018-09-27T21:41:45.943Z,64
2018-09-27T21:47:20.604Z,64
2018-09-27T21:52:51.272Z,64
2018-09-27T21:58:16.867Z,64
2018-09-27T22:03:52.958Z,64
2018-09-27T22:09:17.191Z,64
2018-09-27T22:14:48.068Z,64
2018-09-27T22:20:23.815Z,64
2018-09-27T22:25:48.020Z,64
2018-09-27T22:31:17.979Z,64
2018-09-27T22:36:48.301Z,64
2018-09-27T22:42:23.908Z,64
2018-09-27T22:47:49.505Z,64
2018-09-27T22:53:20.357Z,64
2018-09-27T22:58:55.917Z,64
2018-09-27T23:04:20.390Z,64
2018-09-27T23:09:49.774Z,64
2018-09-27T23:15:20.326Z,64
2018-09-27T23:20:50.872Z,64
2018-09-27T23:26:21.698Z,64
2018-09-27T23:31:54.460Z,64
2018-09-27T23:37:22.432Z,64
2018-09-27T23:42:58.178Z,64
2018-09-27T23:48:27.600Z,64
2018-09-27T23:53:53.047Z,64
2018-09-27T23:59:22.609Z,64
